African Loon — 3EFF9 — position and weather

sailwx.info

Track history (hours):
 
Tides and Currents Weather Stations Pressure Air Temp Water Temp Dewpoint Dewpoint Depression Visibility Wind Speed Wind Dir Waves Ship Positions

African Loon

Last reported at 2017-May-16 23:52 UTC. Time now 2017-May-24 13:27 UTC.
Position N 01°54' E 102°20'.

Length 200 m; draft 10.1 m.

Type: Cargo ship. MMSI: 374319000.

Date/timePositionNaut miles runAvg speedWind from/ knotsBaromVisibWave heightAir tempDewpointWater temp
2017-May-16 23:52N 01°54' E 102°20'514.1
2017-May-16 23:31N 01°52' E 102°25'714.8
2017-May-16 23:01N 01°49' E 102°31'5914.5
2017-May-16 18:55N 01°17' E 103°21'713.8
2017-May-16 18:23N 01°13' E 103°27'513.3
2017-May-16 18:00N 01°12' E 103°32'613.0
2017-May-16 17:30N 01°11' E 103°39'612.3
2017-May-16 17:00N 01°08' E 103°44'612.1
2017-May-16 16:30N 01°11' E 103°50'612.6
2017-May-16 16:00N 01°14' E 103°55'713.5
2017-May-16 15:30N 01°16' E 104°02'712.7
2017-May-16 14:59N 01°17' E 104°09'  
Track history (hours):
 
Tides and Currents Weather Stations Pressure Air Temp Water Temp Dewpoint Dewpoint Depression Visibility Wind Speed Wind Dir Waves Ship Positions

African Loon

Last reported at 2017-May-16 23:52 UTC. Time now 2017-May-24 13:27 UTC.
Position N 01°54' E 102°20'.

Length 200 m; draft 10.1 m.

Type: Cargo ship. MMSI: 374319000.

Date/timePositionNaut miles runAvg speedWind from/ knotsBaromVisibWave heightAir tempDewpointWater temp
2017-May-16 23:52N 01°54' E 102°20'514.1
2017-May-16 23:31N 01°52' E 102°25'714.8
2017-May-16 23:01N 01°49' E 102°31'5914.5
2017-May-16 18:55N 01°17' E 103°21'713.8
2017-May-16 18:23N 01°13' E 103°27'513.3
2017-May-16 18:00N 01°12' E 103°32'613.0
2017-May-16 17:30N 01°11' E 103°39'612.3
2017-May-16 17:00N 01°08' E 103°44'612.1
2017-May-16 16:30N 01°11' E 103°50'612.6
2017-May-16 16:00N 01°14' E 103°55'713.5
2017-May-16 15:30N 01°16' E 104°02'712.7
2017-May-16 14:59N 01°17' E 104°09'  

Dump ship's entire track history